createdAt,value
2022-12-20T00:00:13.105Z,4.6
2022-12-20T00:05:13.094Z,4.6
2022-12-20T00:10:13.099Z,4.6
2022-12-20T00:15:13.094Z,4.6
2022-12-20T00:20:13.110Z,4.6
2022-12-20T00:25:13.074Z,4.6
2022-12-20T00:30:13.091Z,4.6
2022-12-20T00:35:13.080Z,4.6
2022-12-20T00:40:13.126Z,4.7
2022-12-20T00:45:13.067Z,4.7
2022-12-20T00:50:13.092Z,4.7
2022-12-20T00:55:13.084Z,4.7
2022-12-20T01:00:13.095Z,4.7
2022-12-20T01:05:13.065Z,4.7
2022-12-20T01:10:13.074Z,4.7
2022-12-20T01:15:13.074Z,4.7
2022-12-20T01:20:13.187Z,4.8
2022-12-20T01:25:13.080Z,4.8
2022-12-20T01:30:13.081Z,4.8
2022-12-20T01:35:13.085Z,4.8
2022-12-20T01:40:13.102Z,4.8
2022-12-20T01:45:13.073Z,4.8
2022-12-20T01:50:13.066Z,4.8
2022-12-20T01:55:13.061Z,4.8
2022-12-20T02:00:13.099Z,4.8
2022-12-20T02:05:13.057Z,4.8
2022-12-20T02:10:13.077Z,4.9
2022-12-20T02:15:13.075Z,4.9
2022-12-20T02:20:13.126Z,4.9
2022-12-20T02:25:13.163Z,4.9
2022-12-20T02:30:13.061Z,4.9
2022-12-20T02:35:13.058Z,4.9
2022-12-20T02:40:13.080Z,4.9
2022-12-20T02:45:13.060Z,4.9
2022-12-20T02:50:13.174Z,4.9
2022-12-20T02:55:13.070Z,5
2022-12-20T03:00:13.083Z,5
2022-12-20T03:05:13.062Z,5
2022-12-20T03:10:13.073Z,5.1
2022-12-20T03:15:13.190Z,5.1
2022-12-20T03:20:13.063Z,5.1
2022-12-20T03:25:13.080Z,5.1
2022-12-20T03:30:13.053Z,5.1
2022-12-20T03:35:13.069Z,5.1
2022-12-20T03:40:13.068Z,5.1
2022-12-20T03:45:13.046Z,5.2
2022-12-20T03:50:13.057Z,5.2
2022-12-20T03:55:13.062Z,5.2
2022-12-20T04:00:13.073Z,5.2
2022-12-20T04:05:13.030Z,5.3
2022-12-20T04:10:13.034Z,5.3
2022-12-20T04:15:13.029Z,5.3
2022-12-20T04:20:13.172Z,5.3
2022-12-20T04:25:13.075Z,5.3
2022-12-20T04:30:13.079Z,5.3
2022-12-20T04:35:13.273Z,5.3
2022-12-20T04:40:13.124Z,5.3
2022-12-20T04:45:13.092Z,5.4
2022-12-20T04:50:13.075Z,5.4
2022-12-20T04:55:13.087Z,5.4
2022-12-20T05:00:13.195Z,5.4
2022-12-20T05:05:13.064Z,5.4
2022-12-20T05:10:13.066Z,5.4
2022-12-20T05:15:13.055Z,5.4
2022-12-20T05:20:13.108Z,5.4
2022-12-20T05:25:13.057Z,5.4
2022-12-20T05:30:13.075Z,5.4
2022-12-20T05:35:13.073Z,5.4
2022-12-20T05:40:13.097Z,5.4
2022-12-20T05:45:13.057Z,5.4
2022-12-20T05:50:18.424Z,5.4
2022-12-20T05:55:13.090Z,5.4
2022-12-20T06:00:13.077Z,5.5
2022-12-20T06:05:13.080Z,5.5
2022-12-20T06:10:13.103Z,5.5
2022-12-20T06:15:13.146Z,5.5
2022-12-20T06:20:13.138Z,5.5
2022-12-20T06:25:13.076Z,5.5
2022-12-20T06:30:13.049Z,5.5
2022-12-20T06:35:13.073Z,5.6
2022-12-20T06:40:13.073Z,5.6
2022-12-20T06:45:13.047Z,5.6
2022-12-20T06:50:13.209Z,5.6
2022-12-20T06:55:13.156Z,5.6
2022-12-20T07:00:13.085Z,5.6
2022-12-20T07:05:13.092Z,5.6
2022-12-20T07:10:13.080Z,5.6
2022-12-20T07:15:13.075Z,5.6
2022-12-20T07:20:14.319Z,5.7
2022-12-20T07:25:13.032Z,5.7
2022-12-20T07:30:13.055Z,5.7
2022-12-20T07:35:13.079Z,5.7
2022-12-20T07:40:13.073Z,5.8
2022-12-20T07:45:13.072Z,5.8
2022-12-20T07:50:13.045Z,5.8
2022-12-20T07:55:13.041Z,5.8
2022-12-20T08:00:13.081Z,5.8
2022-12-20T08:05:13.030Z,5.8
2022-12-20T08:10:13.044Z,5.8
2022-12-20T08:15:13.027Z,5.9
2022-12-20T08:20:13.053Z,5.9
2022-12-20T08:25:13.057Z,5.9
2022-12-20T08:30:13.024Z,5.9
2022-12-20T08:35:13.148Z,5.9
2022-12-20T08:40:13.075Z,5.9
2022-12-20T08:45:13.040Z,6
2022-12-20T08:50:13.031Z,6
2022-12-20T08:55:13.339Z,6
2022-12-20T09:00:13.041Z,6
2022-12-20T09:05:13.031Z,6.1
2022-12-20T09:10:13.010Z,6.1
2022-12-20T09:15:13.010Z,6.1
2022-12-20T09:20:13.032Z,6.1
2022-12-20T09:25:12.999Z,6.1
2022-12-20T09:30:13.017Z,6.1
2022-12-20T09:35:15.512Z,6.2
2022-12-20T09:40:13.028Z,6.2
2022-12-20T09:45:12.997Z,6.3
2022-12-20T09:50:12.998Z,6.3
2022-12-20T09:55:13.002Z,6.3
2022-12-20T10:00:13.034Z,6.3
2022-12-20T10:05:13.138Z,6.3
2022-12-20T10:10:12.994Z,6.4
2022-12-20T10:15:13.001Z,6.4
2022-12-20T10:20:13.028Z,6.4
2022-12-20T10:25:12.981Z,6.5
2022-12-20T10:30:12.999Z,6.5
2022-12-20T10:35:12.985Z,6.6
2022-12-20T10:40:13.036Z,6.6
2022-12-20T10:45:12.983Z,6.6
2022-12-20T10:50:12.987Z,6.6
2022-12-20T10:55:13.010Z,6.7
2022-12-20T11:00:13.043Z,6.8
2022-12-20T11:05:13.093Z,6.8
2022-12-20T11:10:12.998Z,6.8
2022-12-20T11:15:13.018Z,6.9
2022-12-20T11:20:13.025Z,6.9
2022-12-20T11:25:12.998Z,6.9
2022-12-20T11:30:13.057Z,6.9
2022-12-20T11:35:13.118Z,7
2022-12-20T11:40:13.146Z,7.1
2022-12-20T11:45:13.249Z,7.1
2022-12-20T11:50:13.243Z,7.1
2022-12-20T11:55:13.272Z,7.2
2022-12-20T12:00:13.344Z,7.2
2022-12-20T12:05:13.752Z,7.3
2022-12-20T12:10:13.585Z,7.3
2022-12-20T12:15:16.494Z,7.3
2022-12-20T12:20:13.633Z,7.4
2022-12-20T12:25:13.786Z,7.4
2022-12-20T12:30:13.720Z,7.4
2022-12-20T12:35:13.737Z,7.5
2022-12-20T12:40:13.783Z,7.6
2022-12-20T12:45:13.840Z,7.6
2022-12-20T12:50:13.831Z,7.6
2022-12-20T12:55:13.926Z,7.7
2022-12-20T13:00:14.047Z,7.8
2022-12-20T13:05:14.014Z,7.8
2022-12-20T13:10:14.052Z,7.8
2022-12-20T13:15:14.043Z,7.8
2022-12-20T13:20:14.192Z,7.9
2022-12-20T13:25:14.160Z,7.9
2022-12-20T13:30:14.302Z,7.9
2022-12-20T13:35:14.168Z,7.9
2022-12-20T13:40:14.214Z,8
2022-12-20T13:45:14.165Z,8
2022-12-20T13:50:14.169Z,8
2022-12-20T13:55:14.162Z,8.1
2022-12-20T14:00:14.185Z,8.1
2022-12-20T14:05:14.192Z,8.1
2022-12-20T14:10:14.205Z,8.1
2022-12-20T14:15:14.194Z,8.1
2022-12-20T14:20:14.262Z,8.1
2022-12-20T14:25:14.285Z,8.1
2022-12-20T14:30:14.330Z,8.1
2022-12-20T14:35:14.355Z,8.1
2022-12-20T14:40:14.434Z,8.1
2022-12-20T14:45:14.364Z,8.1
2022-12-20T14:50:14.380Z,8.1
2022-12-20T14:55:14.435Z,8.1
2022-12-20T15:00:14.487Z,8.1
2022-12-20T15:05:14.502Z,8.1
2022-12-20T15:10:14.510Z,8.1
2022-12-20T15:15:28.544Z,8.1
2022-12-20T15:20:14.546Z,8.1
2022-12-20T15:25:14.525Z,8.1
2022-12-20T15:30:14.525Z,8.1
2022-12-20T15:35:14.587Z,8.1
2022-12-20T15:40:14.651Z,8.1
2022-12-20T15:45:14.580Z,8.1
2022-12-20T15:50:14.594Z,8.1
2022-12-20T15:55:14.599Z,8
2022-12-20T16:00:14.626Z,8
2022-12-20T16:05:14.721Z,8
2022-12-20T16:10:14.722Z,8
2022-12-20T16:15:14.721Z,8
2022-12-20T16:20:14.736Z,7.9
2022-12-20T16:25:18.152Z,7.9
2022-12-20T16:30:14.701Z,7.9
2022-12-20T16:35:14.764Z,7.9
2022-12-20T16:40:14.870Z,7.9
2022-12-20T16:45:14.821Z,7.9
2022-12-20T16:50:14.970Z,7.9
2022-12-20T16:55:15.204Z,7.9
2022-12-20T17:00:14.904Z,7.9
2022-12-20T17:05:15.057Z,7.8
2022-12-20T17:10:14.966Z,7.8
2022-12-20T17:15:14.834Z,7.8
2022-12-20T17:20:14.841Z,7.8
2022-12-20T17:25:14.809Z,7.8
2022-12-20T17:30:14.814Z,7.8
2022-12-20T17:35:14.814Z,7.8
2022-12-20T17:40:14.863Z,7.8
2022-12-20T17:45:14.803Z,7.8
2022-12-20T17:50:14.825Z,7.8
2022-12-20T17:55:14.824Z,7.8
2022-12-20T18:00:14.830Z,7.7
2022-12-20T18:05:14.875Z,7.7
2022-12-20T18:10:14.879Z,7.7
2022-12-20T18:15:14.949Z,7.7
2022-12-20T18:20:14.961Z,7.7
2022-12-20T18:25:14.931Z,7.7
2022-12-20T18:30:14.926Z,7.7
2022-12-20T18:35:14.923Z,7.7
2022-12-20T18:40:14.971Z,7.7
2022-12-20T18:45:14.916Z,7.7
2022-12-20T18:50:14.919Z,7.6
2022-12-20T18:55:14.984Z,7.6
2022-12-20T19:00:14.970Z,7.6
2022-12-20T19:05:14.943Z,7.6
2022-12-20T19:10:14.938Z,7.6
2022-12-20T19:15:14.912Z,7.6
2022-12-20T19:20:14.951Z,7.6
2022-12-20T19:25:14.905Z,7.6
2022-12-20T19:30:14.915Z,7.6
2022-12-20T19:35:45.540Z,7.6
2022-12-20T19:40:14.968Z,7.6
2022-12-20T19:45:14.905Z,7.6
2022-12-20T19:50:14.904Z,7.6
2022-12-20T19:55:15.274Z,7.6
2022-12-20T20:00:15.024Z,7.6
2022-12-20T20:05:15.520Z,7.6
2022-12-20T20:10:14.906Z,7.6
2022-12-20T20:15:14.927Z,7.6
2022-12-20T20:20:14.926Z,7.6
2022-12-20T20:25:14.891Z,7.6
2022-12-20T20:30:14.907Z,7.6
2022-12-20T20:35:14.911Z,7.6
2022-12-20T20:40:15.061Z,7.6
2022-12-20T20:45:14.907Z,7.6
2022-12-20T20:50:14.902Z,7.5
2022-12-20T20:55:15.179Z,7.5
2022-12-20T21:00:14.996Z,7.5
2022-12-20T21:10:15.149Z,7.5
2022-12-20T21:15:23.547Z,7.5
2022-12-20T21:20:14.939Z,7.5
2022-12-20T21:25:14.904Z,7.5
2022-12-20T21:30:14.914Z,7.5
2022-12-20T21:35:15.020Z,7.5
2022-12-20T21:40:14.959Z,7.5
2022-12-20T21:45:14.913Z,7.5
2022-12-20T21:50:14.923Z,7.5
2022-12-20T21:55:19.139Z,7.5
2022-12-20T22:00:14.926Z,7.5
2022-12-20T22:05:15.072Z,7.5
2022-12-20T22:10:14.909Z,7.5
2022-12-20T22:15:14.951Z,7.5
2022-12-20T22:20:14.901Z,7.5
2022-12-20T22:25:14.895Z,7.5
2022-12-20T22:30:14.905Z,7.5
2022-12-20T22:35:19.151Z,7.5
2022-12-20T22:40:14.947Z,7.5
2022-12-20T22:45:15.042Z,7.5
2022-12-20T22:50:15.065Z,7.5
2022-12-20T22:55:15.065Z,7.5
2022-12-20T23:00:15.031Z,7.5
2022-12-20T23:05:14.964Z,7.5
2022-12-20T23:10:14.951Z,7.5
2022-12-20T23:15:15.037Z,7.5
2022-12-20T23:20:14.956Z,7.5
2022-12-20T23:25:14.969Z,7.5
2022-12-20T23:30:14.970Z,7.5
2022-12-20T23:35:14.983Z,7.5
2022-12-20T23:40:15.004Z,7.5
2022-12-20T23:45:14.960Z,7.5
2022-12-20T23:50:14.995Z,7.4
2022-12-20T23:55:14.978Z,7.4
